Time;durP1;ratioP1;P1;durP2;ratioP2;P2;SDS_P1;SDS_P2;PMS_P1;PMS_P2;Temp;Humidity;BMP_temperature;BMP_pressure;BME280_temperature;BME280_humidity;BME280_pressure;Samples;Min_cycle;Max_cycle;Signal;HPM_P1;HPM_P2
2023/06/14 14:49:12;;;;;;;0.00;0.00;;;27.00;90.60;;;;;;5109940;27;20394;-71
2023/06/14 14:51:38;;;;;;;0.00;0.00;;;27.00;50.70;;;;;;5120804;28;20169;-73
2023/06/14 14:54:04;;;;;;;0.00;0.00;;;27.30;50.70;;;;;;5109367;28;20169;-72
2023/06/14 14:56:30;;;;;;;0.00;0.00;;;28.10;49.50;;;;;;5088417;27;20189;-70
2023/06/14 14:58:55;;;;;;;0.00;0.00;;;27.60;49.40;;;;;;5101935;28;20255;-70
2023/06/14 15:01:21;;;;;;;0.00;0.00;;;27.20;49.50;;;;;;5107380;28;20188;-72
2023/06/14 15:03:47;;;;;;;0.00;0.00;;;27.20;51.30;;;;;;5107120;28;20216;-72
2023/06/14 15:06:13;;;;;;;0.50;0.20;;;27.30;51.10;;;;;;5110397;28;20282;-70
2023/06/14 15:08:38;;;;;;;0.00;0.00;;;27.40;50.30;;;;;;5107386;28;20287;-73
2023/06/14 15:11:04;;;;;;;0.05;0.05;;;27.60;50.60;;;;;;5098458;28;20256;-69
2023/06/14 15:13:29;;;;;;;0.10;0.10;;;28.00;48.80;;;;;;5089207;28;20252;-70
2023/06/14 15:15:55;;;;;;;0.00;0.00;;;28.40;50.00;;;;;;5093804;28;20193;-70
2023/06/14 15:18:21;;;;;;;0.00;0.00;;;28.50;48.60;;;;;;5095201;28;20185;-70
2023/06/14 15:20:47;;;;;;;0.25;0.25;;;28.70;49.70;;;;;;5093621;28;20180;-73
2023/06/14 15:23:19;;;;;;;0.00;0.00;;;28.30;50.50;;;;;;5090338;28;20165;-74
2023/06/14 15:25:47;;;;;;;1.55;0.68;;;28.10;50.00;;;;;;5092415;28;20203;-75
2023/06/14 15:28:12;;;;;;;0.00;0.00;;;27.80;48.00;;;;;;5105917;28;20201;-74
2023/06/14 15:30:38;;;;;;;0.00;0.00;;;27.40;50.00;;;;;;5100679;28;20676;-74
2023/06/14 15:33:03;;;;;;;0.10;0.10;;;27.30;50.30;;;;;;5101463;28;20280;-74
2023/06/14 15:35:29;;;;;;;0.20;0.20;;;27.20;50.10;;;;;;5097721;28;20806;-74
2023/06/14 15:37:54;;;;;;;0.10;0.10;;;27.60;50.00;;;;;;5093793;28;20512;-73
2023/06/14 15:40:20;;;;;;;0.10;0.10;;;27.60;48.70;;;;;;5109269;28;20168;-75
2023/06/14 15:42:46;;;;;;;0.00;0.00;;;28.10;48.40;;;;;;5110015;28;20176;-74
2023/06/14 15:45:12;;;;;;;0.00;0.00;;;27.80;49.00;;;;;;5108624;28;20168;-73
2023/06/14 15:47:37;;;;;;;0.30;0.30;;;27.80;48.50;;;;;;5108212;28;20273;-73
2023/06/14 15:50:05;;;;;;;0.00;0.00;;;28.00;47.60;;;;;;5109355;28;20180;-71
2023/06/14 15:52:30;;;;;;;0.00;0.00;;;27.70;50.50;;;;;;5109617;28;20221;-70
2023/06/14 15:54:56;;;;;;;0.38;0.38;;;28.20;48.50;;;;;;5109375;28;20239;-69
2023/06/14 15:57:21;;;;;;;0.00;0.00;;;28.00;48.50;;;;;;5107358;28;20217;-71
2023/06/14 15:59:47;;;;;;;0.00;0.00;;;26.90;49.50;;;;;;5079203;28;20259;-74
2023/06/14 16:02:13;;;;;;;0.00;0.00;;;26.30;50.70;;;;;;5092405;28;20173;-70
2023/06/14 16:04:39;;;;;;;0.00;0.00;;;26.80;51.20;;;;;;5083751;28;20537;-73
2023/06/14 16:07:04;;;;;;;0.00;0.00;;;27.10;50.70;;;;;;5091805;28;22174;-70
2023/06/14 16:09:30;;;;;;;0.10;0.10;;;27.80;49.50;;;;;;5094831;28;20173;-71
2023/06/14 16:11:56;;;;;;;0.15;0.15;;;27.50;49.90;;;;;;5095852;28;20169;-74
2023/06/14 16:14:22;;;;;;;0.10;0.10;;;27.30;49.50;;;;;;5095022;28;20208;-73
2023/06/14 16:16:48;;;;;;;0.00;0.00;;;26.50;50.70;;;;;;5094502;28;20214;-71
2023/06/14 16:19:13;;;;;;;0.17;0.17;;;26.70;51.40;;;;;;5081397;28;20611;-71
2023/06/14 16:21:39;;;;;;;0.00;0.00;;;27.20;50.40;;;;;;5083910;28;20184;-71
2023/06/14 16:24:05;;;;;;;0.08;0.08;;;26.20;50.40;;;;;;5081483;28;20576;-72
2023/06/14 16:26:31;;;;;;;0.00;0.00;;;26.70;50.90;;;;;;5084212;28;20279;-71
2023/06/14 16:28:56;;;;;;;0.00;0.00;;;25.90;52.80;;;;;;5081793;28;20733;-74
2023/06/14 16:31:22;;;;;;;0.80;0.32;;;26.20;50.80;;;;;;5093515;28;20176;-74
2023/06/14 16:33:54;;;;;;;0.00;0.00;;;26.40;50.30;;;;;;5087021;28;20173;-74
2023/06/14 16:36:23;;;;;;;0.00;0.00;;;26.50;50.60;;;;;;5084630;28;20575;-74
2023/06/14 16:38:50;;;;;;;0.00;0.00;;;26.30;51.10;;;;;;5095050;28;20173;-74
2023/06/14 16:41:16;;;;;;;0.05;0.05;;;26.10;51.90;;;;;;5086729;28;20209;-76
2023/06/14 16:43:41;;;;;;;0.00;0.00;;;26.20;51.00;;;;;;5095112;28;20583;-74
2023/06/14 16:46:07;;;;;;;0.00;0.00;;;25.80;52.10;;;;;;5087396;28;20664;-74
2023/06/14 16:48:32;;;;;;;0.00;0.00;;;25.80;53.20;;;;;;5095513;28;20204;-73
2023/06/14 16:50:58;;;;;;;0.00;0.00;;;25.70;52.20;;;;;;5095461;28;20166;-74
2023/06/14 16:53:23;;;;;;;0.00;0.00;;;25.70;53.20;;;;;;5093429;28;20270;-76
2023/06/14 16:55:49;;;;;;;0.15;0.15;;;25.70;52.70;;;;;;5089459;28;20190;-73
2023/06/14 16:58:15;;;;;;;0.10;0.10;;;25.60;53.30;;;;;;5084886;28;20174;-73
2023/06/14 17:00:40;;;;;;;0.10;0.10;;;25.30;53.10;;;;;;5080847;28;20177;-73
2023/06/14 17:03:09;;;;;;;0.00;0.00;;;25.60;52.80;;;;;;5094636;28;20177;-74
2023/06/14 17:05:35;;;;;;;0.10;0.10;;;25.50;52.70;;;;;;5092451;28;20422;-73
2023/06/14 17:08:01;;;;;;;0.00;0.00;;;25.30;52.70;;;;;;5093298;28;20707;-73
2023/06/14 17:10:27;;;;;;;0.03;0.03;;;25.20;53.30;;;;;;5092812;28;20184;-73
2023/06/14 17:12:53;;;;;;;0.00;0.00;;;25.20;53.50;;;;;;5094784;28;20249;-73
2023/06/14 17:15:19;;;;;;;0.03;0.03;;;25.30;54.10;;;;;;5092325;28;20204;-75
2023/06/14 17:17:44;;;;;;;0.00;0.00;;;25.10;53.80;;;;;;5094445;28;20177;-74
2023/06/14 17:20:10;;;;;;;0.00;0.00;;;25.20;53.40;;;;;;5094144;28;20229;-73
2023/06/14 17:22:36;;;;;;;0.00;0.00;;;25.00;54.30;;;;;;5080221;28;20181;-73
2023/06/14 17:25:01;;;;;;;0.20;0.20;;;24.90;53.90;;;;;;5082989;28;20174;-73
2023/06/14 17:27:27;;;;;;;0.35;0.35;;;24.70;53.80;;;;;;5092135;28;20297;-74
2023/06/14 17:29:52;;;;;;;0.80;0.80;;;24.50;54.20;;;;;;5087743;28;20562;-74
2023/06/14 17:32:18;;;;;;;0.00;0.00;;;24.50;55.20;;;;;;5089804;28;20633;-70
2023/06/14 17:34:44;;;;;;;0.00;0.00;;;24.40;55.60;;;;;;5094545;28;20173;-71
2023/06/14 17:37:09;;;;;;;0.10;0.10;;;24.50;55.80;;;;;;5095024;28;20215;-71
2023/06/14 17:39:36;;;;;;;0.20;0.20;;;24.60;55.90;;;;;;5094607;28;20244;-71
2023/06/14 17:42:02;;;;;;;0.00;0.00;;;24.40;55.60;;;;;;5093279;28;20177;-73
2023/06/14 17:44:27;;;;;;;0.47;0.47;;;24.20;55.50;;;;;;5094703;28;20172;-72
2023/06/14 17:46:53;;;;;;;0.00;0.00;;;24.20;55.30;;;;;;5089455;28;20259;-72
2023/06/14 17:49:23;;;;;;;0.00;0.00;;;24.10;55.70;;;;;;5074534;28;20177;-71
2023/06/14 17:51:49;;;;;;;0.10;0.10;;;24.10;55.30;;;;;;5080497;28;20525;-71
2023/06/14 17:54:15;;;;;;;0.00;0.00;;;24.10;54.90;;;;;;5094337;28;20165;-72
2023/06/14 17:56:40;;;;;;;0.00;0.00;;;23.90;54.50;;;;;;5094289;28;20200;-70
2023/06/14 17:59:07;;;;;;;0.00;0.00;;;23.90;54.50;;;;;;5094328;28;20540;-71
2023/06/14 18:01:33;;;;;;;0.00;0.00;;;23.90;54.80;;;;;;5090277;28;20170;-71
2023/06/14 18:03:59;;;;;;;0.25;0.25;;;23.80;55.30;;;;;;5084233;28;20637;-72
2023/06/14 18:06:25;;;;;;;0.00;0.00;;;23.80;55.80;;;;;;5093690;28;20185;-71
2023/06/14 18:08:50;;;;;;;0.28;0.28;;;23.90;55.20;;;;;;5082810;28;20229;-71
2023/06/14 18:11:16;;;;;;;0.30;0.30;;;23.70;55.10;;;;;;5074164;28;20626;-71
2023/06/14 18:13:42;;;;;;;0.00;0.00;;;23.80;55.30;;;;;;5073925;28;20162;-71
2023/06/14 18:16:08;;;;;;;0.00;0.00;;;23.80;56.00;;;;;;5090630;28;20553;-72
2023/06/14 18:18:33;;;;;;;0.10;0.10;;;23.80;56.60;;;;;;5082894;28;20268;-70
2023/06/14 18:21:00;;;;;;;0.00;0.00;;;23.70;56.70;;;;;;5072813;28;20536;-70
2023/06/14 18:23:25;;;;;;;0.32;0.32;;;23.50;57.50;;;;;;5083841;28;20189;-71
2023/06/14 18:25:51;;;;;;;0.00;0.00;;;23.60;58.00;;;;;;5093219;28;20220;-70
2023/06/14 18:28:16;;;;;;;0.05;0.05;;;23.40;58.30;;;;;;5093928;28;20219;-72
2023/06/14 18:30:42;;;;;;;0.00;0.00;;;23.40;58.80;;;;;;5093947;28;20172;-71
2023/06/14 18:33:08;;;;;;;0.00;0.00;;;23.40;58.60;;;;;;5092464;28;20158;-71
2023/06/14 18:35:33;;;;;;;0.10;0.10;;;23.40;58.80;;;;;;5090879;28;20511;-71
2023/06/14 18:37:59;;;;;;;0.52;0.47;;;23.30;59.10;;;;;;5073404;28;20626;-72
2023/06/14 18:40:24;;;;;;;0.40;0.40;;;23.20;58.80;;;;;;5075236;28;20188;-70
2023/06/14 18:42:50;;;;;;;0.25;0.25;;;23.10;59.60;;;;;;5093477;28;20215;-72
2023/06/14 18:45:16;;;;;;;0.00;0.00;;;23.10;59.90;;;;;;5093230;28;20581;-72
2023/06/14 18:47:41;;;;;;;0.00;0.00;;;23.00;60.50;;;;;;5091698;28;20233;-71
2023/06/14 18:50:07;;;;;;;0.00;0.00;;;23.00;60.60;;;;;;5104468;22;20282;-71
2023/06/14 18:52:32;;;;;;;0.10;0.10;;;23.00;60.90;;;;;;5071896;28;20729;-71
2023/06/14 18:54:58;;;;;;;1.25;0.60;;;22.90;61.10;;;;;;5065719;28;20177;-71
2023/06/14 18:57:24;;;;;;;0.25;0.25;;;22.80;61.50;;;;;;5088907;28;20193;-71
2023/06/14 18:59:50;;;;;;;0.17;0.17;;;22.80;61.70;;;;;;5090725;28;20720;-70
2023/06/14 19:02:16;;;;;;;0.00;0.00;;;;;;;;;;5091705;28;20208;-70
2023/06/14 19:04:42;;;;;;;0.43;0.43;;;23.20;82.60;;;;;;5091533;28;20621;-71
2023/06/14 19:07:08;;;;;;;0.00;0.00;;;22.80;94.70;;;;;;5090390;28;20193;-70
2023/06/14 19:09:34;;;;;;;0.00;0.00;;;22.60;64.60;;;;;;5100713;28;20529;-71
2023/06/14 19:12:00;;;;;;;0.00;0.00;;;22.40;66.20;;;;;;5091184;28;20173;-71
2023/06/14 19:14:25;;;;;;;0.00;0.00;;;22.30;62.70;;;;;;5099171;28;20185;-70
2023/06/14 19:16:51;;;;;;;0.00;0.00;;;22.20;63.50;;;;;;5091222;28;20269;-70
2023/06/14 19:19:18;;;;;;;0.00;0.00;;;22.10;63.40;;;;;;5092656;28;20188;-71
2023/06/14 19:21:44;;;;;;;0.00;0.00;;;22.10;64.40;;;;;;5091181;28;20179;-71
2023/06/14 19:24:10;;;;;;;0.00;0.00;;;22.00;65.20;;;;;;5085116;28;20173;-70
2023/06/14 19:26:35;;;;;;;0.00;0.00;;;21.80;66.50;;;;;;5087271;28;20320;-71
2023/06/14 19:29:01;;;;;;;0.20;0.20;;;21.70;67.10;;;;;;5091252;28;20223;-70
2023/06/14 19:31:26;;;;;;;0.00;0.00;;;21.50;68.20;;;;;;5091120;28;20176;-71
2023/06/14 19:33:52;;;;;;;0.00;0.00;;;21.40;68.80;;;;;;5091177;28;20173;-71
2023/06/14 19:36:19;;;;;;;0.45;0.38;;;21.30;70.00;;;;;;5095375;28;20238;-71
2023/06/14 19:38:46;;;;;;;0.00;0.00;;;21.30;70.50;;;;;;5095146;28;20542;-71
2023/06/14 19:41:13;;;;;;;0.00;0.00;;;21.20;71.50;;;;;;5095092;28;20200;-71
2023/06/14 19:43:38;;;;;;;0.10;0.10;;;21.10;72.20;;;;;;5095342;28;20237;-71
2023/06/14 19:46:04;;;;;;;0.00;0.00;;;21.00;73.30;;;;;;5088872;28;20602;-70
2023/06/14 19:48:30;;;;;;;0.00;0.00;;;20.90;74.50;;;;;;5095138;28;20196;-71
2023/06/14 19:50:55;;;;;;;0.00;0.00;;;20.80;76.10;;;;;;5093136;28;20188;-70
2023/06/14 19:53:21;;;;;;;0.00;0.00;;;20.80;76.60;;;;;;5095151;28;20166;-71
2023/06/14 19:55:46;;;;;;;0.45;0.45;;;20.60;78.50;;;;;;5093587;28;20189;-71
2023/06/14 19:58:12;;;;;;;0.05;0.05;;;20.50;79.80;;;;;;5080353;28;20363;-71
2023/06/14 20:00:37;;;;;;;0.00;0.00;;;20.40;80.40;;;;;;5095341;28;20173;-71
2023/06/14 20:03:03;;;;;;;0.00;0.00;;;20.40;81.00;;;;;;5095229;28;20169;-71
2023/06/14 20:05:30;;;;;;;0.10;0.10;;;20.40;81.90;;;;;;5095135;28;20173;-71
2023/06/14 20:07:56;;;;;;;0.00;0.00;;;20.20;83.60;;;;;;5093094;28;20189;-73
2023/06/14 20:10:22;;;;;;;0.10;0.10;;;20.10;85.40;;;;;;5075234;28;20167;-71
2023/06/14 20:12:47;;;;;;;0.00;0.00;;;19.90;88.40;;;;;;5092700;28;20575;-70
2023/06/14 20:15:13;;;;;;;0.00;0.00;;;19.80;90.30;;;;;;5089152;28;20205;-71
2023/06/14 20:17:38;;;;;;;0.00;0.00;;;19.60;92.00;;;;;;5094338;28;20225;-70
2023/06/14 20:20:05;;;;;;;0.05;0.05;;;19.60;93.30;;;;;;5094055;28;20234;-69
2023/06/14 20:22:37;;;;;;;0.00;0.00;;;19.40;94.90;;;;;;5094284;28;20173;-70
2023/06/14 20:25:06;;;;;;;1.13;1.02;;;19.40;95.20;;;;;;5092669;28;20648;-70
2023/06/14 20:27:34;;;;;;;0.10;0.10;;;19.40;96.30;;;;;;5094346;28;20624;-70
2023/06/14 20:30:03;;;;;;;0.00;0.00;;;19.40;96.00;;;;;;5093639;28;20325;-70
2023/06/14 20:32:29;;;;;;;0.00;0.00;;;19.50;99.40;;;;;;5092862;28;20169;-72
2023/06/14 20:34:56;;;;;;;0.00;0.00;;;19.40;99.90;;;;;;5083029;28;20174;-71
2023/06/14 20:37:22;;;;;;;0.00;0.00;;;19.20;99.90;;;;;;5091247;28;20196;-71
2023/06/14 20:39:49;;;;;;;0.00;0.00;;;19.40;98.90;;;;;;5093945;28;20311;-70
2023/06/14 20:42:15;;;;;;;0.00;0.00;;;19.20;99.30;;;;;;5093237;28;20260;-70
2023/06/14 20:44:41;;;;;;;0.00;0.00;;;19.10;99.90;;;;;;5093041;28;20573;-69
2023/06/14 20:47:12;;;;;;;0.00;0.00;;;19.20;99.20;;;;;;5093356;28;20259;-70
2023/06/14 20:49:40;;;;;;;0.00;0.00;;;19.20;99.90;;;;;;5087163;28;20165;-70
2023/06/14 20:52:07;;;;;;;0.10;0.10;;;19.00;99.90;;;;;;5092791;28;20192;-71
2023/06/14 20:54:33;;;;;;;0.00;0.00;;;19.10;99.90;;;;;;5093668;28;20172;-70
2023/06/14 20:56:59;;;;;;;0.30;0.30;;;19.20;99.90;;;;;;5093155;28;20195;-69
2023/06/14 20:59:24;;;;;;;0.00;0.00;;;19.20;99.90;;;;;;5093364;28;20181;-70
2023/06/14 21:01:50;;;;;;;0.00;0.00;;;19.20;99.60;;;;;;5092666;28;20697;-71
2023/06/14 21:04:16;;;;;;;0.40;0.13;;;19.20;99.80;;;;;;5093284;28;20197;-70
2023/06/14 21:06:41;;;;;;;0.00;0.00;;;19.10;99.90;;;;;;5093438;28;20661;-70
2023/06/14 21:09:07;;;;;;;0.00;0.00;;;19.20;99.90;;;;;;5093202;28;20197;-71
2023/06/14 21:11:32;;;;;;;0.00;0.00;;;19.30;99.40;;;;;;5092427;28;20180;-70
2023/06/14 21:13:58;;;;;;;0.00;0.00;;;19.20;99.90;;;;;;5092343;28;20238;-69
2023/06/14 21:16:23;;;;;;;0.00;0.00;;;19.20;99.90;;;;;;5092697;28;20704;-70
2023/06/14 21:18:49;;;;;;;0.17;0.17;;;19.20;99.90;;;;;;5092977;28;20173;-68
2023/06/14 21:21:14;;;;;;;0.00;0.00;;;19.20;99.90;;;;;;5092985;28;20177;-70
2023/06/14 21:23:41;;;;;;;0.00;0.00;;;19.20;99.90;;;;;;5091719;28;20169;-71
2023/06/14 21:26:07;;;;;;;0.10;0.10;;;19.20;99.90;;;;;;5092235;28;20673;-71
2023/06/14 21:28:32;;;;;;;0.00;0.00;;;19.20;99.90;;;;;;5092856;28;20245;-70
2023/06/14 21:30:58;;;;;;;0.00;0.00;;;19.40;99.90;;;;;;5092803;28;20180;-70
2023/06/14 21:33:23;;;;;;;0.00;0.00;;;19.40;99.90;;;;;;5079521;28;20195;-71
2023/06/14 21:35:50;;;;;;;0.00;0.00;;;19.30;99.90;;;;;;5092696;28;20193;-70
2023/06/14 21:38:15;;;;;;;0.00;0.00;;;19.30;99.90;;;;;;5092485;28;20188;-70
2023/06/14 21:40:41;;;;;;;0.00;0.00;;;19.30;99.90;;;;;;5092540;28;20168;-70
2023/06/14 21:43:06;;;;;;;0.00;0.00;;;19.30;99.90;;;;;;5092616;28;20208;-71
2023/06/14 21:45:32;;;;;;;0.00;0.00;;;19.30;99.90;;;;;;5091867;28;20674;-71
2023/06/14 21:47:57;;;;;;;0.00;0.00;;;19.30;99.90;;;;;;5092378;28;20204;-70
2023/06/14 21:50:24;;;;;;;0.00;0.00;;;19.40;99.90;;;;;;5092164;28;20210;-71
2023/06/14 21:52:49;;;;;;;0.00;0.00;;;19.40;99.90;;;;;;5092744;28;20633;-70
2023/06/14 21:55:15;;;;;;;0.00;0.00;;;19.40;99.90;;;;;;5091019;28;20172;-69
2023/06/14 21:57:40;;;;;;;0.00;0.00;;;19.40;99.90;;;;;;5092038;28;20208;-70
2023/06/14 22:00:09;;;;;;;0.00;0.00;;;19.40;99.90;;;;;;5091260;28;21054;-70
2023/06/14 22:02:35;;;;;;;0.00;0.00;;;19.40;99.90;;;;;;5083341;28;20263;-70
2023/06/14 22:05:00;;;;;;;0.00;0.00;;;19.30;99.90;;;;;;5091900;28;20274;-70
2023/06/14 22:07:30;;;;;;;0.00;0.00;;;19.30;99.90;;;;;;5092148;28;20200;-70
2023/06/14 22:09:57;;;;;;;0.00;0.00;;;19.30;99.90;;;;;;5091838;28;20204;-69
2023/06/14 22:12:23;;;;;;;0.00;0.00;;;19.30;99.90;;;;;;5092382;28;20585;-70
2023/06/14 22:14:49;;;;;;;0.00;0.00;;;19.30;99.90;;;;;;5092006;28;20548;-70
2023/06/14 22:17:17;;;;;;;0.00;0.00;;;19.20;99.90;;;;;;5090647;28;20284;-70
2023/06/14 22:19:46;;;;;;;0.00;0.00;;;19.30;99.90;;;;;;5091771;28;20177;-68
2023/06/14 22:22:12;;;;;;;0.00;0.00;;;19.20;99.90;;;;;;5077697;28;20706;-69
2023/06/14 22:24:37;;;;;;;0.33;0.33;;;19.30;99.90;;;;;;5091672;28;20202;-71
2023/06/14 22:27:05;;;;;;;0.00;0.00;;;19.30;99.90;;;;;;5091879;28;20275;-70
2023/06/14 22:29:32;;;;;;;0.00;0.00;;;19.30;99.90;;;;;;5091464;28;20173;-71
2023/06/14 22:31:59;;;;;;;0.00;0.00;;;19.20;99.90;;;;;;5091851;28;20620;-71
2023/06/14 22:34:24;;;;;;;0.00;0.00;;;19.10;99.90;;;;;;5091815;28;20185;-71
2023/06/14 22:36:52;;;;;;;0.00;0.00;;;19.10;99.90;;;;;;5092058;28;20247;-71
2023/06/14 22:39:18;;;;;;;0.30;0.30;;;19.20;99.90;;;;;;5091892;28;20251;-70
2023/06/14 22:41:47;;;;;;;0.00;0.00;;;19.10;99.90;;;;;;5092278;28;20183;-70
2023/06/14 22:44:16;;;;;;;0.10;0.10;;;19.10;99.90;;;;;;5091815;28;20179;-71
2023/06/14 22:46:42;;;;;;;0.00;0.00;;;19.10;99.90;;;;;;5091787;28;20231;-71
2023/06/14 22:49:07;;;;;;;0.10;0.10;;;19.00;99.90;;;;;;5091461;28;20324;-70
2023/06/14 22:51:33;;;;;;;0.00;0.00;;;19.00;99.90;;;;;;5091758;28;20332;-71
2023/06/14 22:53:59;;;;;;;0.03;0.03;;;18.90;99.90;;;;;;5091453;28;20254;-71
2023/06/14 22:56:25;;;;;;;0.10;0.10;;;18.80;99.90;;;;;;5091539;28;20204;-70
2023/06/14 22:58:53;;;;;;;0.00;0.00;;;18.90;99.90;;;;;;5091857;28;20178;-70
2023/06/14 23:01:19;;;;;;;0.00;0.00;;;18.90;99.90;;;;;;5091716;28;20179;-71
2023/06/14 23:03:48;;;;;;;0.00;0.00;;;18.90;99.90;;;;;;5091597;28;20180;-71
2023/06/14 23:06:16;;;;;;;0.00;0.00;;;18.80;99.90;;;;;;5091596;28;20276;-71
2023/06/14 23:08:43;;;;;;;0.00;0.00;;;18.80;99.90;;;;;;5092028;28;20200;-71
2023/06/14 23:11:13;;;;;;;0.27;0.27;;;18.80;99.90;;;;;;5096094;28;20176;-69
2023/06/14 23:13:43;;;;;;;0.00;0.00;;;18.80;99.90;;;;;;5096348;28;20175;-71
2023/06/14 23:16:12;;;;;;;0.07;0.07;;;18.80;99.90;;;;;;5096257;28;20683;-70
2023/06/14 23:18:38;;;;;;;0.00;0.00;;;18.80;99.90;;;;;;5095525;28;20194;-69
2023/06/14 23:21:05;;;;;;;0.10;0.10;;;18.70;99.90;;;;;;5095255;28;20180;-70
2023/06/14 23:23:35;;;;;;;0.00;0.00;;;18.70;99.90;;;;;;5095584;28;20658;-70
2023/06/14 23:26:05;;;;;;;0.10;0.10;;;18.70;99.90;;;;;;5094821;28;20207;-71
2023/06/14 23:28:34;;;;;;;0.00;0.00;;;18.80;99.90;;;;;;5095333;28;20211;-71
2023/06/14 23:31:01;;;;;;;0.00;0.00;;;18.80;99.90;;;;;;5095512;28;20243;-70
2023/06/14 23:33:27;;;;;;;0.00;0.00;;;18.80;99.90;;;;;;5095476;28;20171;-69
2023/06/14 23:35:52;;;;;;;0.60;0.60;;;18.70;99.90;;;;;;5094962;28;20187;-70
2023/06/14 23:38:18;;;;;;;0.40;0.40;;;18.80;99.90;;;;;;5094114;28;20267;-71
2023/06/14 23:40:45;;;;;;;0.00;0.00;;;18.70;99.90;;;;;;5095566;28;20183;-70
2023/06/14 23:43:14;;;;;;;0.00;0.00;;;18.70;99.90;;;;;;5095317;28;20174;-70
2023/06/14 23:45:39;;;;;;;0.00;0.00;;;18.70;99.90;;;;;;5094915;28;20178;-69
2023/06/14 23:48:05;;;;;;;0.00;0.00;;;18.70;99.90;;;;;;5095385;28;20251;-71
2023/06/14 23:50:30;;;;;;;0.10;0.10;;;18.70;99.90;;;;;;5094800;28;20246;-71
2023/06/14 23:52:59;;;;;;;0.00;0.00;;;18.60;99.90;;;;;;5095370;28;20251;-71
2023/06/14 23:55:29;;;;;;;0.00;0.00;;;18.60;99.90;;;;;;5093969;28;20241;-70
2023/06/14 23:57:55;;;;;;;0.40;0.10;;;18.50;99.90;;;;;;5095127;28;20174;-71
